sensor_id;sensor_type;location;lat;lon;timestamp;P1;durP1;ratioP1;P2;durP2;ratioP2
76459;SDS011;65299;46.084;18.762;2024-02-23T00:02:13;4.72;;;2.10;;
76459;SDS011;65299;46.084;18.762;2024-02-23T00:05:13;5.10;;;2.00;;
76459;SDS011;65299;46.084;18.762;2024-02-23T00:08:14;4.03;;;2.17;;
76459;SDS011;65299;46.084;18.762;2024-02-23T00:11:14;3.00;;;1.97;;
76459;SDS011;65299;46.084;18.762;2024-02-23T00:14:15;3.80;;;2.00;;
76459;SDS011;65299;46.084;18.762;2024-02-23T00:17:18;3.97;;;2.33;;
76459;SDS011;65299;46.084;18.762;2024-02-23T00:20:18;3.15;;;1.77;;
76459;SDS011;65299;46.084;18.762;2024-02-23T00:23:19;4.43;;;2.23;;
76459;SDS011;65299;46.084;18.762;2024-02-23T00:26:19;4.20;;;2.07;;
76459;SDS011;65299;46.084;18.762;2024-02-23T00:29:20;5.23;;;2.40;;
76459;SDS011;65299;46.084;18.762;2024-02-23T00:32:21;3.45;;;1.80;;
76459;SDS011;65299;46.084;18.762;2024-02-23T00:35:21;4.73;;;2.40;;
76459;SDS011;65299;46.084;18.762;2024-02-23T00:38:22;3.95;;;2.10;;
76459;SDS011;65299;46.084;18.762;2024-02-23T00:41:22;3.73;;;2.10;;
76459;SDS011;65299;46.084;18.762;2024-02-23T00:44:23;3.77;;;2.20;;
76459;SDS011;65299;46.084;18.762;2024-02-23T00:47:23;4.63;;;2.50;;
76459;SDS011;65299;46.084;18.762;2024-02-23T00:50:24;4.72;;;2.00;;
76459;SDS011;65299;46.084;18.762;2024-02-23T00:53:26;3.70;;;1.70;;
76459;SDS011;65299;46.084;18.762;2024-02-23T00:56:26;3.93;;;2.20;;
76459;SDS011;65299;46.084;18.762;2024-02-23T00:59:27;3.75;;;2.30;;
76459;SDS011;65299;46.084;18.762;2024-02-23T01:02:28;3.97;;;2.00;;
76459;SDS011;65299;46.084;18.762;2024-02-23T01:05:29;7.30;;;2.63;;
76459;SDS011;65299;46.084;18.762;2024-02-23T01:08:29;5.10;;;2.20;;
76459;SDS011;65299;46.084;18.762;2024-02-23T01:11:31;4.57;;;1.85;;
76459;SDS011;65299;46.084;18.762;2024-02-23T01:14:31;4.13;;;2.13;;
76459;SDS011;65299;46.084;18.762;2024-02-23T01:17:32;4.03;;;2.03;;
76459;SDS011;65299;46.084;18.762;2024-02-23T01:20:32;3.90;;;2.00;;
76459;SDS011;65299;46.084;18.762;2024-02-23T01:23:33;4.23;;;2.20;;
76459;SDS011;65299;46.084;18.762;2024-02-23T01:26:33;8.90;;;2.10;;
76459;SDS011;65299;46.084;18.762;2024-02-23T01:29:34;4.00;;;1.65;;
76459;SDS011;65299;46.084;18.762;2024-02-23T01:32:34;5.47;;;2.20;;
76459;SDS011;65299;46.084;18.762;2024-02-23T01:35:37;5.35;;;2.00;;
76459;SDS011;65299;46.084;18.762;2024-02-23T01:38:38;3.53;;;2.10;;
76459;SDS011;65299;46.084;18.762;2024-02-23T01:41:38;4.33;;;2.30;;
76459;SDS011;65299;46.084;18.762;2024-02-23T01:44:39;4.40;;;2.00;;
76459;SDS011;65299;46.084;18.762;2024-02-23T01:47:39;3.60;;;1.90;;
76459;SDS011;65299;46.084;18.762;2024-02-23T01:50:41;3.10;;;1.80;;
76459;SDS011;65299;46.084;18.762;2024-02-23T01:53:43;3.95;;;2.30;;
76459;SDS011;65299;46.084;18.762;2024-02-23T01:56:44;6.30;;;1.90;;
76459;SDS011;65299;46.084;18.762;2024-02-23T01:59:44;6.13;;;1.95;;
76459;SDS011;65299;46.084;18.762;2024-02-23T02:02:44;3.63;;;1.97;;
76459;SDS011;65299;46.084;18.762;2024-02-23T02:05:45;2.93;;;1.40;;
76459;SDS011;65299;46.084;18.762;2024-02-23T02:08:45;4.57;;;2.17;;
76459;SDS011;65299;46.084;18.762;2024-02-23T02:11:49;6.97;;;1.95;;
76459;SDS011;65299;46.084;18.762;2024-02-23T02:14:50;4.93;;;2.55;;
76459;SDS011;65299;46.084;18.762;2024-02-23T02:17:50;5.13;;;2.37;;
76459;SDS011;65299;46.084;18.762;2024-02-23T02:20:52;5.17;;;2.40;;
76459;SDS011;65299;46.084;18.762;2024-02-23T02:23:55;4.30;;;2.30;;
76459;SDS011;65299;46.084;18.762;2024-02-23T02:26:56;3.65;;;1.92;;
76459;SDS011;65299;46.084;18.762;2024-02-23T02:29:57;5.67;;;2.53;;
76459;SDS011;65299;46.084;18.762;2024-02-23T02:32:57;5.33;;;2.60;;
76459;SDS011;65299;46.084;18.762;2024-02-23T02:35:58;5.70;;;2.50;;
76459;SDS011;65299;46.084;18.762;2024-02-23T02:38:58;4.40;;;2.60;;
76459;SDS011;65299;46.084;18.762;2024-02-23T02:41:59;4.30;;;2.37;;
76459;SDS011;65299;46.084;18.762;2024-02-23T02:44:59;4.55;;;2.28;;
76459;SDS011;65299;46.084;18.762;2024-02-23T02:48:00;5.20;;;2.43;;
76459;SDS011;65299;46.084;18.762;2024-02-23T02:51:02;3.53;;;2.25;;
76459;SDS011;65299;46.084;18.762;2024-02-23T02:54:02;6.20;;;2.30;;
76459;SDS011;65299;46.084;18.762;2024-02-23T02:57:03;4.67;;;2.30;;
76459;SDS011;65299;46.084;18.762;2024-02-23T03:00:04;5.03;;;2.13;;
76459;SDS011;65299;46.084;18.762;2024-02-23T03:03:05;5.70;;;2.30;;
76459;SDS011;65299;46.084;18.762;2024-02-23T03:06:06;5.63;;;2.45;;
76459;SDS011;65299;46.084;18.762;2024-02-23T03:09:06;4.70;;;2.45;;
76459;SDS011;65299;46.084;18.762;2024-02-23T03:12:07;3.97;;;2.33;;
76459;SDS011;65299;46.084;18.762;2024-02-23T03:15:08;5.23;;;2.50;;
76459;SDS011;65299;46.084;18.762;2024-02-23T03:18:10;5.25;;;2.72;;
76459;SDS011;65299;46.084;18.762;2024-02-23T03:21:10;5.20;;;2.53;;
76459;SDS011;65299;46.084;18.762;2024-02-23T03:24:11;5.23;;;2.63;;
76459;SDS011;65299;46.084;18.762;2024-02-23T03:27:11;5.43;;;3.10;;
76459;SDS011;65299;46.084;18.762;2024-02-23T03:30:12;5.18;;;2.60;;
76459;SDS011;65299;46.084;18.762;2024-02-23T03:33:12;7.37;;;2.93;;
76459;SDS011;65299;46.084;18.762;2024-02-23T03:36:13;6.37;;;3.17;;
76459;SDS011;65299;46.084;18.762;2024-02-23T03:39:13;6.43;;;3.37;;
76459;SDS011;65299;46.084;18.762;2024-02-23T03:42:14;6.47;;;2.88;;
76459;SDS011;65299;46.084;18.762;2024-02-23T03:45:14;5.40;;;2.90;;
76459;SDS011;65299;46.084;18.762;2024-02-23T03:48:15;9.17;;;4.70;;
76459;SDS011;65299;46.084;18.762;2024-02-23T03:51:15;5.65;;;3.22;;
76459;SDS011;65299;46.084;18.762;2024-02-23T03:54:16;7.57;;;3.03;;
76459;SDS011;65299;46.084;18.762;2024-02-23T03:57:16;6.22;;;3.17;;
76459;SDS011;65299;46.084;18.762;2024-02-23T04:00:17;9.07;;;3.30;;
76459;SDS011;65299;46.084;18.762;2024-02-23T04:03:19;7.68;;;3.33;;
76459;SDS011;65299;46.084;18.762;2024-02-23T04:06:20;9.07;;;3.50;;
76459;SDS011;65299;46.084;18.762;2024-02-23T04:09:21;9.43;;;2.58;;
76459;SDS011;65299;46.084;18.762;2024-02-23T04:12:21;5.97;;;2.97;;
76459;SDS011;65299;46.084;18.762;2024-02-23T04:15:22;9.05;;;3.67;;
76459;SDS011;65299;46.084;18.762;2024-02-23T04:18:22;5.80;;;2.90;;
76459;SDS011;65299;46.084;18.762;2024-02-23T04:21:23;5.57;;;3.17;;
76459;SDS011;65299;46.084;18.762;2024-02-23T04:24:24;8.23;;;3.58;;
76459;SDS011;65299;46.084;18.762;2024-02-23T04:27:24;5.03;;;3.10;;
76459;SDS011;65299;46.084;18.762;2024-02-23T04:30:25;6.68;;;3.30;;
76459;SDS011;65299;46.084;18.762;2024-02-23T04:33:25;7.10;;;2.60;;
76459;SDS011;65299;46.084;18.762;2024-02-23T04:36:25;7.50;;;3.23;;
76459;SDS011;65299;46.084;18.762;2024-02-23T04:39:26;7.50;;;3.30;;
76459;SDS011;65299;46.084;18.762;2024-02-23T04:42:26;9.10;;;3.10;;
76459;SDS011;65299;46.084;18.762;2024-02-23T04:45:27;6.63;;;3.72;;
76459;SDS011;65299;46.084;18.762;2024-02-23T04:48:28;6.50;;;3.03;;
76459;SDS011;65299;46.084;18.762;2024-02-23T04:51:30;5.75;;;3.15;;
76459;SDS011;65299;46.084;18.762;2024-02-23T04:54:31;5.87;;;3.30;;
76459;SDS011;65299;46.084;18.762;2024-02-23T04:57:31;5.82;;;3.15;;
76459;SDS011;65299;46.084;18.762;2024-02-23T05:00:32;6.33;;;3.70;;
76459;SDS011;65299;46.084;18.762;2024-02-23T05:03:33;6.53;;;3.45;;
76459;SDS011;65299;46.084;18.762;2024-02-23T05:06:33;7.57;;;3.37;;
76459;SDS011;65299;46.084;18.762;2024-02-23T05:09:34;6.00;;;3.33;;
76459;SDS011;65299;46.084;18.762;2024-02-23T05:12:35;7.65;;;3.40;;
76459;SDS011;65299;46.084;18.762;2024-02-23T05:15:35;7.87;;;3.87;;
76459;SDS011;65299;46.084;18.762;2024-02-23T05:18:35;6.83;;;4.27;;
76459;SDS011;65299;46.084;18.762;2024-02-23T05:21:36;8.73;;;4.90;;
76459;SDS011;65299;46.084;18.762;2024-02-23T05:24:36;7.87;;;4.27;;
76459;SDS011;65299;46.084;18.762;2024-02-23T05:27:37;7.00;;;4.23;;
76459;SDS011;65299;46.084;18.762;2024-02-23T05:30:37;8.87;;;4.40;;
76459;SDS011;65299;46.084;18.762;2024-02-23T05:33:37;7.95;;;3.75;;
76459;SDS011;65299;46.084;18.762;2024-02-23T05:36:38;10.83;;;5.03;;
76459;SDS011;65299;46.084;18.762;2024-02-23T05:39:39;8.15;;;4.32;;
76459;SDS011;65299;46.084;18.762;2024-02-23T05:42:39;6.20;;;3.50;;
76459;SDS011;65299;46.084;18.762;2024-02-23T05:45:40;5.30;;;3.63;;
76459;SDS011;65299;46.084;18.762;2024-02-23T05:48:40;5.53;;;3.23;;
76459;SDS011;65299;46.084;18.762;2024-02-23T05:51:40;7.00;;;4.35;;
76459;SDS011;65299;46.084;18.762;2024-02-23T05:54:44;6.67;;;3.93;;
76459;SDS011;65299;46.084;18.762;2024-02-23T05:57:44;10.98;;;4.90;;
76459;SDS011;65299;46.084;18.762;2024-02-23T06:00:45;6.40;;;4.17;;
76459;SDS011;65299;46.084;18.762;2024-02-23T06:03:45;7.20;;;3.77;;
76459;SDS011;65299;46.084;18.762;2024-02-23T06:06:46;11.20;;;6.00;;
76459;SDS011;65299;46.084;18.762;2024-02-23T06:09:46;12.80;;;6.77;;
76459;SDS011;65299;46.084;18.762;2024-02-23T06:12:46;8.27;;;4.83;;
76459;SDS011;65299;46.084;18.762;2024-02-23T06:15:47;7.70;;;4.63;;
76459;SDS011;65299;46.084;18.762;2024-02-23T06:18:47;8.15;;;5.10;;
76459;SDS011;65299;46.084;18.762;2024-02-23T06:21:50;8.57;;;5.00;;
76459;SDS011;65299;46.084;18.762;2024-02-23T06:24:51;12.05;;;5.70;;
76459;SDS011;65299;46.084;18.762;2024-02-23T06:27:51;13.57;;;6.73;;
76459;SDS011;65299;46.084;18.762;2024-02-23T06:30:51;38.30;;;21.53;;
76459;SDS011;65299;46.084;18.762;2024-02-23T06:33:52;36.83;;;19.23;;
76459;SDS011;65299;46.084;18.762;2024-02-23T06:36:52;35.72;;;19.25;;
76459;SDS011;65299;46.084;18.762;2024-02-23T06:39:53;70.23;;;35.23;;
76459;SDS011;65299;46.084;18.762;2024-02-23T06:42:54;57.55;;;29.13;;
76459;SDS011;65299;46.084;18.762;2024-02-23T06:45:54;32.57;;;17.20;;
76459;SDS011;65299;46.084;18.762;2024-02-23T06:48:55;35.83;;;16.37;;
76459;SDS011;65299;46.084;18.762;2024-02-23T06:51:56;31.80;;;14.93;;
76459;SDS011;65299;46.084;18.762;2024-02-23T06:54:56;26.70;;;14.00;;
76459;SDS011;65299;46.084;18.762;2024-02-23T06:57:56;29.07;;;14.37;;
76459;SDS011;65299;46.084;18.762;2024-02-23T07:00:57;22.20;;;11.17;;
76459;SDS011;65299;46.084;18.762;2024-02-23T07:03:57;16.40;;;7.03;;
76459;SDS011;65299;46.084;18.762;2024-02-23T07:06:58;14.10;;;7.67;;
76459;SDS011;65299;46.084;18.762;2024-02-23T07:09:59;12.68;;;7.30;;
76459;SDS011;65299;46.084;18.762;2024-02-23T07:13:00;12.07;;;6.97;;
76459;SDS011;65299;46.084;18.762;2024-02-23T07:16:00;15.07;;;8.50;;
76459;SDS011;65299;46.084;18.762;2024-02-23T07:19:01;10.90;;;6.03;;
76459;SDS011;65299;46.084;18.762;2024-02-23T07:22:01;14.27;;;7.00;;
76459;SDS011;65299;46.084;18.762;2024-02-23T07:25:02;10.03;;;6.53;;
76459;SDS011;65299;46.084;18.762;2024-02-23T07:28:05;14.27;;;7.20;;
76459;SDS011;65299;46.084;18.762;2024-02-23T07:31:05;18.88;;;9.70;;
76459;SDS011;65299;46.084;18.762;2024-02-23T07:34:06;16.40;;;7.00;;
76459;SDS011;65299;46.084;18.762;2024-02-23T07:37:06;18.10;;;8.37;;
76459;SDS011;65299;46.084;18.762;2024-02-23T07:40:07;26.27;;;10.43;;
76459;SDS011;65299;46.084;18.762;2024-02-23T07:43:07;23.17;;;9.88;;
76459;SDS011;65299;46.084;18.762;2024-02-23T07:46:10;15.32;;;7.43;;
76459;SDS011;65299;46.084;18.762;2024-02-23T07:49:12;15.30;;;7.63;;
76459;SDS011;65299;46.084;18.762;2024-02-23T07:52:12;9.97;;;5.23;;
76459;SDS011;65299;46.084;18.762;2024-02-23T07:55:12;8.53;;;5.37;;
76459;SDS011;65299;46.084;18.762;2024-02-23T07:58:13;7.90;;;4.90;;
76459;SDS011;65299;46.084;18.762;2024-02-23T08:01:14;9.70;;;5.25;;
76459;SDS011;65299;46.084;18.762;2024-02-23T08:04:14;9.80;;;6.03;;
76459;SDS011;65299;46.084;18.762;2024-02-23T08:07:16;11.07;;;5.82;;
76459;SDS011;65299;46.084;18.762;2024-02-23T08:10:16;18.43;;;7.50;;
76459;SDS011;65299;46.084;18.762;2024-02-23T08:13:17;18.73;;;8.10;;
76459;SDS011;65299;46.084;18.762;2024-02-23T08:16:18;19.83;;;8.80;;
76459;SDS011;65299;46.084;18.762;2024-02-23T08:19:18;19.65;;;8.32;;
76459;SDS011;65299;46.084;18.762;2024-02-23T08:22:18;14.37;;;6.80;;
76459;SDS011;65299;46.084;18.762;2024-02-23T08:25:19;12.57;;;6.73;;
76459;SDS011;65299;46.084;18.762;2024-02-23T08:28:19;11.77;;;6.85;;
76459;SDS011;65299;46.084;18.762;2024-02-23T08:31:20;9.87;;;6.03;;
76459;SDS011;65299;46.084;18.762;2024-02-23T08:34:20;10.70;;;6.33;;
76459;SDS011;65299;46.084;18.762;2024-02-23T08:37:21;11.63;;;6.32;;
76459;SDS011;65299;46.084;18.762;2024-02-23T08:40:21;9.77;;;5.83;;
76459;SDS011;65299;46.084;18.762;2024-02-23T08:43:22;9.83;;;6.43;;
76459;SDS011;65299;46.084;18.762;2024-02-23T08:46:22;12.00;;;5.33;;
76459;SDS011;65299;46.084;18.762;2024-02-23T08:49:22;9.07;;;5.17;;
76459;SDS011;65299;46.084;18.762;2024-02-23T08:52:23;10.63;;;5.30;;
76459;SDS011;65299;46.084;18.762;2024-02-23T08:55:25;9.63;;;5.70;;
76459;SDS011;65299;46.084;18.762;2024-02-23T08:58:26;12.02;;;7.05;;
76459;SDS011;65299;46.084;18.762;2024-02-23T09:01:26;10.83;;;6.90;;
76459;SDS011;65299;46.084;18.762;2024-02-23T09:04:27;8.80;;;5.43;;
76459;SDS011;65299;46.084;18.762;2024-02-23T09:07:27;9.27;;;5.10;;
76459;SDS011;65299;46.084;18.762;2024-02-23T09:10:28;8.47;;;5.40;;
76459;SDS011;65299;46.084;18.762;2024-02-23T09:13:31;10.97;;;5.83;;
76459;SDS011;65299;46.084;18.762;2024-02-23T09:16:31;9.65;;;5.32;;
76459;SDS011;65299;46.084;18.762;2024-02-23T09:19:33;9.40;;;5.70;;
76459;SDS011;65299;46.084;18.762;2024-02-23T09:22:34;10.23;;;5.63;;
76459;SDS011;65299;46.084;18.762;2024-02-23T09:25:35;11.27;;;5.68;;
76459;SDS011;65299;46.084;18.762;2024-02-23T09:28:36;8.80;;;4.97;;
76459;SDS011;65299;46.084;18.762;2024-02-23T09:31:36;8.45;;;4.82;;
76459;SDS011;65299;46.084;18.762;2024-02-23T09:34:37;6.80;;;4.13;;
76459;SDS011;65299;46.084;18.762;2024-02-23T09:37:37;5.80;;;4.30;;
76459;SDS011;65299;46.084;18.762;2024-02-23T09:40:38;6.50;;;4.03;;
76459;SDS011;65299;46.084;18.762;2024-02-23T09:43:39;6.50;;;3.80;;
76459;SDS011;65299;46.084;18.762;2024-02-23T09:46:42;8.40;;;4.72;;
76459;SDS011;65299;46.084;18.762;2024-02-23T09:49:43;7.82;;;4.25;;
76459;SDS011;65299;46.084;18.762;2024-02-23T09:52:48;6.72;;;3.75;;
76459;SDS011;65299;46.084;18.762;2024-02-23T09:55:50;7.28;;;4.22;;
76459;SDS011;65299;46.084;18.762;2024-02-23T09:58:51;10.57;;;4.63;;
76459;SDS011;65299;46.084;18.762;2024-02-23T10:01:53;8.68;;;4.43;;
76459;SDS011;65299;46.084;18.762;2024-02-23T10:04:54;5.15;;;3.90;;
76459;SDS011;65299;46.084;18.762;2024-02-23T10:07:56;4.93;;;3.47;;
76459;SDS011;65299;46.084;18.762;2024-02-23T10:10:58;5.80;;;3.33;;
76459;SDS011;65299;46.084;18.762;2024-02-23T10:14:00;7.00;;;3.58;;
76459;SDS011;65299;46.084;18.762;2024-02-23T10:17:01;7.47;;;4.27;;
76459;SDS011;65299;46.084;18.762;2024-02-23T10:20:02;5.47;;;3.53;;
76459;SDS011;65299;46.084;18.762;2024-02-23T10:23:07;6.68;;;3.83;;
76459;SDS011;65299;46.084;18.762;2024-02-23T10:26:08;6.35;;;3.60;;
76459;SDS011;65299;46.084;18.762;2024-02-23T10:29:09;6.13;;;3.83;;
76459;SDS011;65299;46.084;18.762;2024-02-23T10:32:10;5.22;;;3.58;;
76459;SDS011;65299;46.084;18.762;2024-02-23T10:35:15;7.07;;;3.33;;
76459;SDS011;65299;46.084;18.762;2024-02-23T10:38:18;5.50;;;3.60;;
76459;SDS011;65299;46.084;18.762;2024-02-23T10:41:21;7.68;;;3.30;;
76459;SDS011;65299;46.084;18.762;2024-02-23T10:44:22;5.38;;;3.13;;
76459;SDS011;65299;46.084;18.762;2024-02-23T10:47:23;7.72;;;4.00;;
76459;SDS011;65299;46.084;18.762;2024-02-23T10:50:24;7.20;;;3.87;;
76459;SDS011;65299;46.084;18.762;2024-02-23T10:53:26;5.20;;;3.70;;
76459;SDS011;65299;46.084;18.762;2024-02-23T10:56:27;5.85;;;3.22;;
76459;SDS011;65299;46.084;18.762;2024-02-23T10:59:28;6.45;;;3.40;;
76459;SDS011;65299;46.084;18.762;2024-02-23T11:02:29;5.23;;;3.67;;
76459;SDS011;65299;46.084;18.762;2024-02-23T11:05:34;5.40;;;2.72;;
76459;SDS011;65299;46.084;18.762;2024-02-23T11:08:34;5.53;;;3.23;;
76459;SDS011;65299;46.084;18.762;2024-02-23T11:11:38;7.05;;;3.67;;
76459;SDS011;65299;46.084;18.762;2024-02-23T11:14:39;6.43;;;3.60;;
76459;SDS011;65299;46.084;18.762;2024-02-23T11:17:39;11.80;;;5.23;;
76459;SDS011;65299;46.084;18.762;2024-02-23T11:20:39;11.07;;;5.07;;
76459;SDS011;65299;46.084;18.762;2024-02-23T11:23:44;12.50;;;6.37;;
76459;SDS011;65299;46.084;18.762;2024-02-23T11:26:48;8.63;;;5.13;;
76459;SDS011;65299;46.084;18.762;2024-02-23T11:29:52;6.45;;;3.92;;
76459;SDS011;65299;46.084;18.762;2024-02-23T11:33:12;6.55;;;4.30;;
76459;SDS011;65299;46.084;18.762;2024-02-23T11:36:13;6.83;;;4.17;;
76459;SDS011;65299;46.084;18.762;2024-02-23T11:39:28;7.28;;;3.40;;
76459;SDS011;65299;46.084;18.762;2024-02-23T11:42:29;6.43;;;3.23;;
76459;SDS011;65299;46.084;18.762;2024-02-23T11:45:31;6.60;;;4.03;;
76459;SDS011;65299;46.084;18.762;2024-02-23T11:48:31;8.53;;;4.43;;
76459;SDS011;65299;46.084;18.762;2024-02-23T11:51:32;9.95;;;5.60;;
76459;SDS011;65299;46.084;18.762;2024-02-23T11:54:33;9.37;;;4.67;;
76459;SDS011;65299;46.084;18.762;2024-02-23T11:57:34;11.60;;;5.20;;
76459;SDS011;65299;46.084;18.762;2024-02-23T12:00:35;11.93;;;5.32;;
76459;SDS011;65299;46.084;18.762;2024-02-23T12:03:37;26.23;;;11.18;;
76459;SDS011;65299;46.084;18.762;2024-02-23T12:06:39;15.23;;;6.85;;
76459;SDS011;65299;46.084;18.762;2024-02-23T12:09:41;10.80;;;6.30;;
76459;SDS011;65299;46.084;18.762;2024-02-23T12:12:43;7.80;;;4.50;;
76459;SDS011;65299;46.084;18.762;2024-02-23T12:15:44;5.97;;;4.35;;
76459;SDS011;65299;46.084;18.762;2024-02-23T12:18:44;7.23;;;3.70;;
76459;SDS011;65299;46.084;18.762;2024-02-23T12:21:45;7.63;;;3.73;;
76459;SDS011;65299;46.084;18.762;2024-02-23T12:24:46;5.97;;;3.05;;
76459;SDS011;65299;46.084;18.762;2024-02-23T12:27:48;5.63;;;3.30;;
76459;SDS011;65299;46.084;18.762;2024-02-23T12:31:00;5.22;;;3.10;;
76459;SDS011;65299;46.084;18.762;2024-02-23T12:34:04;5.75;;;3.88;;
76459;SDS011;65299;46.084;18.762;2024-02-23T12:37:08;8.43;;;4.07;;
76459;SDS011;65299;46.084;18.762;2024-02-23T12:40:14;7.05;;;3.90;;
76459;SDS011;65299;46.084;18.762;2024-02-23T12:43:27;5.85;;;3.65;;
76459;SDS011;65299;46.084;18.762;2024-02-23T12:46:28;5.05;;;3.20;;
76459;SDS011;65299;46.084;18.762;2024-02-23T12:49:28;9.10;;;3.57;;
76459;SDS011;65299;46.084;18.762;2024-02-23T12:52:29;7.82;;;3.22;;
76459;SDS011;65299;46.084;18.762;2024-02-23T12:55:29;5.57;;;3.27;;
76459;SDS011;65299;46.084;18.762;2024-02-23T12:58:31;5.93;;;3.83;;
76459;SDS011;65299;46.084;18.762;2024-02-23T13:01:32;6.28;;;3.58;;
76459;SDS011;65299;46.084;18.762;2024-02-23T13:04:37;6.68;;;4.15;;
76459;SDS011;65299;46.084;18.762;2024-02-23T13:07:38;8.70;;;4.20;;
76459;SDS011;65299;46.084;18.762;2024-02-23T13:10:40;6.88;;;4.18;;
76459;SDS011;65299;46.084;18.762;2024-02-23T13:13:41;13.10;;;4.60;;
76459;SDS011;65299;46.084;18.762;2024-02-23T13:16:41;6.35;;;4.60;;
76459;SDS011;65299;46.084;18.762;2024-02-23T13:19:41;7.43;;;4.17;;
76459;SDS011;65299;46.084;18.762;2024-02-23T13:22:42;7.13;;;4.73;;
76459;SDS011;65299;46.084;18.762;2024-02-23T13:25:43;6.70;;;4.27;;
76459;SDS011;65299;46.084;18.762;2024-02-23T13:28:44;8.77;;;5.00;;
76459;SDS011;65299;46.084;18.762;2024-02-23T13:31:45;6.18;;;3.97;;
76459;SDS011;65299;46.084;18.762;2024-02-23T13:34:46;6.43;;;3.80;;
76459;SDS011;65299;46.084;18.762;2024-02-23T13:37:46;4.95;;;3.22;;
76459;SDS011;65299;46.084;18.762;2024-02-23T13:40:48;7.70;;;3.67;;
76459;SDS011;65299;46.084;18.762;2024-02-23T13:43:50;7.20;;;3.60;;
76459;SDS011;65299;46.084;18.762;2024-02-23T13:46:51;11.00;;;5.20;;
76459;SDS011;65299;46.084;18.762;2024-02-23T13:49:51;8.67;;;4.07;;
76459;SDS011;65299;46.084;18.762;2024-02-23T13:52:51;4.17;;;2.60;;
76459;SDS011;65299;46.084;18.762;2024-02-23T13:55:52;5.97;;;3.17;;
76459;SDS011;65299;46.084;18.762;2024-02-23T13:58:52;5.13;;;3.40;;
76459;SDS011;65299;46.084;18.762;2024-02-23T14:01:53;5.83;;;3.33;;
76459;SDS011;65299;46.084;18.762;2024-02-23T14:04:53;7.60;;;3.40;;
76459;SDS011;65299;46.084;18.762;2024-02-23T14:08:00;5.05;;;3.28;;
76459;SDS011;65299;46.084;18.762;2024-02-23T14:11:01;5.77;;;3.70;;
76459;SDS011;65299;46.084;18.762;2024-02-23T14:14:01;7.50;;;3.80;;
76459;SDS011;65299;46.084;18.762;2024-02-23T14:17:02;6.55;;;3.83;;
76459;SDS011;65299;46.084;18.762;2024-02-23T14:20:04;5.35;;;3.58;;
76459;SDS011;65299;46.084;18.762;2024-02-23T14:23:06;6.43;;;3.60;;
76459;SDS011;65299;46.084;18.762;2024-02-23T14:26:06;5.78;;;3.10;;
76459;SDS011;65299;46.084;18.762;2024-02-23T14:29:07;9.87;;;4.50;;
76459;SDS011;65299;46.084;18.762;2024-02-23T14:32:08;14.73;;;5.20;;
76459;SDS011;65299;46.084;18.762;2024-02-23T14:35:08;21.60;;;8.83;;
76459;SDS011;65299;46.084;18.762;2024-02-23T14:38:09;14.80;;;6.30;;
76459;SDS011;65299;46.084;18.762;2024-02-23T14:41:10;9.20;;;4.47;;
76459;SDS011;65299;46.084;18.762;2024-02-23T14:44:11;9.57;;;4.30;;
76459;SDS011;65299;46.084;18.762;2024-02-23T14:47:12;6.80;;;4.27;;
76459;SDS011;65299;46.084;18.762;2024-02-23T14:50:13;7.38;;;4.32;;
76459;SDS011;65299;46.084;18.762;2024-02-23T14:53:14;5.47;;;3.60;;
76459;SDS011;65299;46.084;18.762;2024-02-23T14:56:15;7.40;;;3.40;;
76459;SDS011;65299;46.084;18.762;2024-02-23T14:59:15;6.43;;;3.40;;
76459;SDS011;65299;46.084;18.762;2024-02-23T15:02:19;8.90;;;3.83;;
76459;SDS011;65299;46.084;18.762;2024-02-23T15:05:21;12.00;;;4.77;;
76459;SDS011;65299;46.084;18.762;2024-02-23T15:08:22;12.77;;;5.80;;
76459;SDS011;65299;46.084;18.762;2024-02-23T15:11:22;16.13;;;7.13;;
76459;SDS011;65299;46.084;18.762;2024-02-23T15:14:23;14.68;;;6.45;;
76459;SDS011;65299;46.084;18.762;2024-02-23T15:17:24;11.23;;;6.50;;
76459;SDS011;65299;46.084;18.762;2024-02-23T15:20:24;14.93;;;8.30;;
76459;SDS011;65299;46.084;18.762;2024-02-23T15:23:24;15.73;;;8.40;;
76459;SDS011;65299;46.084;18.762;2024-02-23T15:26:25;11.38;;;5.93;;
76459;SDS011;65299;46.084;18.762;2024-02-23T15:29:25;14.47;;;6.87;;
76459;SDS011;65299;46.084;18.762;2024-02-23T15:32:26;9.83;;;5.40;;
76459;SDS011;65299;46.084;18.762;2024-02-23T15:35:26;14.57;;;6.68;;
76459;SDS011;65299;46.084;18.762;2024-02-23T15:38:27;11.90;;;6.43;;
76459;SDS011;65299;46.084;18.762;2024-02-23T15:41:28;8.15;;;4.80;;
76459;SDS011;65299;46.084;18.762;2024-02-23T15:44:34;8.57;;;4.40;;
76459;SDS011;65299;46.084;18.762;2024-02-23T15:47:34;7.50;;;3.70;;
76459;SDS011;65299;46.084;18.762;2024-02-23T15:50:35;7.33;;;3.70;;
76459;SDS011;65299;46.084;18.762;2024-02-23T15:53:35;11.40;;;4.87;;
76459;SDS011;65299;46.084;18.762;2024-02-23T15:56:36;10.48;;;5.72;;
76459;SDS011;65299;46.084;18.762;2024-02-23T15:59:38;8.23;;;4.70;;
76459;SDS011;65299;46.084;18.762;2024-02-23T16:02:38;7.80;;;4.43;;
76459;SDS011;65299;46.084;18.762;2024-02-23T16:05:39;5.90;;;3.67;;
76459;SDS011;65299;46.084;18.762;2024-02-23T16:08:41;5.90;;;3.67;;
76459;SDS011;65299;46.084;18.762;2024-02-23T16:11:44;7.50;;;3.88;;
76459;SDS011;65299;46.084;18.762;2024-02-23T16:14:46;14.83;;;6.03;;
76459;SDS011;65299;46.084;18.762;2024-02-23T16:17:47;9.98;;;4.72;;
76459;SDS011;65299;46.084;18.762;2024-02-23T16:20:47;7.50;;;4.30;;
76459;SDS011;65299;46.084;18.762;2024-02-23T16:23:47;10.57;;;5.07;;
76459;SDS011;65299;46.084;18.762;2024-02-23T16:26:48;9.33;;;5.23;;
76459;SDS011;65299;46.084;18.762;2024-02-23T16:29:48;8.03;;;4.80;;
76459;SDS011;65299;46.084;18.762;2024-02-23T16:32:48;6.18;;;3.92;;
76459;SDS011;65299;46.084;18.762;2024-02-23T16:35:49;6.37;;;3.90;;
76459;SDS011;65299;46.084;18.762;2024-02-23T16:38:50;7.75;;;4.43;;
76459;SDS011;65299;46.084;18.762;2024-02-23T16:41:50;5.50;;;3.27;;
76459;SDS011;65299;46.084;18.762;2024-02-23T16:44:51;6.33;;;3.20;;
76459;SDS011;65299;46.084;18.762;2024-02-23T16:47:51;5.60;;;3.03;;
76459;SDS011;65299;46.084;18.762;2024-02-23T16:50:52;7.60;;;4.07;;
76459;SDS011;65299;46.084;18.762;2024-02-23T16:53:53;4.80;;;3.20;;
76459;SDS011;65299;46.084;18.762;2024-02-23T16:56:53;7.13;;;3.07;;
76459;SDS011;65299;46.084;18.762;2024-02-23T16:59:54;9.30;;;4.73;;
76459;SDS011;65299;46.084;18.762;2024-02-23T17:02:54;10.82;;;4.25;;
76459;SDS011;65299;46.084;18.762;2024-02-23T17:05:55;5.13;;;2.40;;
76459;SDS011;65299;46.084;18.762;2024-02-23T17:08:55;6.83;;;3.03;;
76459;SDS011;65299;46.084;18.762;2024-02-23T17:11:55;5.57;;;3.13;;
76459;SDS011;65299;46.084;18.762;2024-02-23T17:14:56;5.30;;;2.90;;
76459;SDS011;65299;46.084;18.762;2024-02-23T17:17:58;9.03;;;3.67;;
76459;SDS011;65299;46.084;18.762;2024-02-23T17:20:58;6.80;;;2.95;;
76459;SDS011;65299;46.084;18.762;2024-02-23T17:23:59;8.27;;;3.07;;
76459;SDS011;65299;46.084;18.762;2024-02-23T17:26:59;3.20;;;1.80;;
76459;SDS011;65299;46.084;18.762;2024-02-23T17:30:00;4.30;;;2.20;;
76459;SDS011;65299;46.084;18.762;2024-02-23T17:33:01;5.07;;;2.67;;
76459;SDS011;65299;46.084;18.762;2024-02-23T17:36:01;5.57;;;2.87;;
76459;SDS011;65299;46.084;18.762;2024-02-23T17:39:03;5.83;;;3.10;;
76459;SDS011;65299;46.084;18.762;2024-02-23T17:42:03;4.65;;;2.70;;
76459;SDS011;65299;46.084;18.762;2024-02-23T17:45:05;7.13;;;3.83;;
76459;SDS011;65299;46.084;18.762;2024-02-23T17:48:06;10.93;;;4.10;;
76459;SDS011;65299;46.084;18.762;2024-02-23T17:51:08;8.27;;;4.30;;